Time;durP1;ratioP1;P1;durP2;ratioP2;P2;SDS_P1;SDS_P2;PMS_P1;PMS_P2;Temp;Humidity;BMP_temperature;BMP_pressure;BME280_temperature;BME280_humidity;BME280_pressure;Samples;Min_cycle;Max_cycle;Signal;HPM_P1;HPM_P2
2023/10/07 00:02:14;;;;;;;18.00;6.15;;;25.40;99.90;;;;;;5034122;28;20052;-50
2023/10/07 00:04:44;;;;;;;14.90;6.50;;;25.40;99.90;;;;;;5034274;28;20029;-50
2023/10/07 00:07:14;;;;;;;18.63;6.90;;;25.30;99.90;;;;;;5034102;28;20075;-51
2023/10/07 00:09:42;;;;;;;14.98;7.38;;;25.30;99.90;;;;;;5034355;28;20374;-50
2023/10/07 00:12:13;;;;;;;16.48;6.60;;;25.30;99.90;;;;;;5032839;28;20036;-50
2023/10/07 00:14:43;;;;;;;15.20;7.20;;;25.30;99.90;;;;;;5033249;28;20026;-50
2023/10/07 00:17:19;;;;;;;17.25;6.80;;;25.20;99.90;;;;;;5034060;28;20432;-50
2023/10/07 00:19:46;;;;;;;12.55;6.00;;;25.20;99.90;;;;;;5033867;28;20013;-50
2023/10/07 00:22:19;;;;;;;15.70;6.47;;;25.20;99.90;;;;;;5033710;28;20024;-51
2023/10/07 00:24:46;;;;;;;12.10;6.20;;;25.20;99.90;;;;;;5032640;28;20390;-50
2023/10/07 00:27:29;;;;;;;19.55;7.40;;;25.20;99.90;;;;;;5032595;28;20021;-50
2023/10/07 00:29:55;;;;;;;11.85;6.70;;;25.10;99.90;;;;;;5033860;28;20022;-50
2023/10/07 00:32:30;;;;;;;13.90;7.00;;;25.10;99.90;;;;;;5033696;28;20029;-50
2023/10/07 00:34:59;;;;;;;24.08;7.55;;;25.10;99.90;;;;;;5033537;28;20049;-50
2023/10/07 00:37:26;;;;;;;13.95;6.68;;;25.00;99.90;;;;;;5033406;28;20535;-50
2023/10/07 00:39:53;;;;;;;16.02;7.75;;;25.10;99.90;;;;;;5033255;28;20028;-51
2023/10/07 00:42:20;;;;;;;18.45;7.82;;;25.00;99.90;;;;;;5033437;28;20026;-50
2023/10/07 00:44:52;;;;;;;14.63;7.07;;;25.00;99.90;;;;;;5033235;28;20378;-50
2023/10/07 00:47:19;;;;;;;12.63;7.15;;;25.00;99.90;;;;;;5033396;28;20474;-50
2023/10/07 00:52:29;;;;;;;13.38;6.40;;;25.00;99.90;;;;;;5033300;28;20059;-50
2023/10/07 00:55:18;;;;;;;14.65;6.82;;;24.90;99.90;;;;;;5033085;28;20021;-50
2023/10/07 00:57:47;;;;;;;;;;;24.90;99.90;;;;;;5033097;28;20128;-51
2023/10/07 01:02:50;;;;;;;13.07;7.00;;;24.90;99.90;;;;;;5032931;28;20064;-50
2023/10/07 01:05:26;;;;;;;13.48;7.15;;;24.90;99.90;;;;;;5031355;28;20024;-50
2023/10/07 01:07:58;;;;;;;12.05;7.50;;;24.80;99.90;;;;;;5032826;28;20021;-51
2023/10/07 01:10:31;;;;;;;16.60;7.80;;;24.80;99.90;;;;;;5032760;28;20040;-51
2023/10/07 01:13:02;;;;;;;18.15;7.18;;;24.80;99.90;;;;;;5032871;28;20478;-50
2023/10/07 01:15:30;;;;;;;16.60;7.03;;;24.80;99.90;;;;;;5032701;28;20100;-50
2023/10/07 01:18:03;;;;;;;;;;;24.70;99.90;;;;;;5033212;28;20485;-51
2023/10/07 01:20:35;;;;;;;25.05;8.38;;;24.70;99.90;;;;;;5032670;28;19916;-51
2023/10/07 01:23:05;;;;;;;13.82;7.95;;;24.70;99.90;;;;;;5032682;28;20051;-51
2023/10/07 01:25:34;;;;;;;17.40;8.65;;;24.70;99.90;;;;;;5031535;28;20270;-50
2023/10/07 01:28:02;;;;;;;15.27;7.55;;;24.70;99.90;;;;;;5019045;28;20022;-51
2023/10/07 01:30:34;;;;;;;15.95;7.93;;;24.70;99.90;;;;;;5032512;28;20056;-51
2023/10/07 01:36:07;;;;;;;18.45;8.30;;;24.60;99.90;;;;;;5032383;28;20032;-51
2023/10/07 01:38:31;;;;;;;16.67;7.15;;;24.60;99.90;;;;;;5020827;28;20052;-51
2023/10/07 01:41:05;;;;;;;18.17;7.53;;;24.60;99.90;;;;;;5032213;28;20052;-51
2023/10/07 01:43:31;;;;;;;18.55;7.72;;;24.60;99.90;;;;;;5032474;28;20717;-51
2023/10/07 01:45:57;;;;;;;15.05;7.78;;;24.50;99.90;;;;;;5032253;28;20034;-51
2023/10/07 01:48:24;;;;;;;21.03;9.20;;;24.50;99.90;;;;;;5018536;28;20466;-51
2023/10/07 01:50:51;;;;;;;17.00;8.95;;;24.50;99.90;;;;;;5032164;28;20793;-51
2023/10/07 01:53:17;;;;;;;19.52;8.88;;;24.50;99.90;;;;;;5032077;28;20112;-51
2023/10/07 01:55:43;;;;;;;19.23;9.73;;;24.50;99.90;;;;;;5032080;28;20031;-51
2023/10/07 01:58:14;;;;;;;23.73;10.20;;;24.50;99.90;;;;;;5032211;28;20034;-51
2023/10/07 02:03:14;;;;;;;19.05;9.52;;;24.50;99.90;;;;;;5031981;28;20072;-51
2023/10/07 02:05:49;;;;;;;20.08;10.65;;;24.50;99.90;;;;;;5032240;28;20021;-51
2023/10/07 02:08:22;;;;;;;15.45;10.10;;;24.50;99.90;;;;;;5032003;28;20056;-51
2023/10/07 02:10:57;;;;;;;19.52;10.20;;;24.50;99.90;;;;;;5031861;28;20021;-51
2023/10/07 02:13:23;;;;;;;24.25;11.93;;;24.50;99.90;;;;;;5031954;28;20032;-51
2023/10/07 02:15:54;;;;;;;19.00;10.52;;;24.50;99.90;;;;;;5031596;28;20100;-50
2023/10/07 02:18:21;;;;;;;19.85;9.57;;;24.50;99.90;;;;;;5032022;28;20355;-51
2023/10/07 02:20:49;;;;;;;20.40;8.75;;;24.40;99.90;;;;;;5031761;28;20060;-51
2023/10/07 02:23:22;;;;;;;16.35;9.93;;;24.40;99.90;;;;;;5031878;28;20033;-50
2023/10/07 02:25:51;;;;;;;17.73;9.23;;;24.40;99.90;;;;;;5031712;28;20030;-51
2023/10/07 02:28:21;;;;;;;13.85;8.73;;;24.40;99.90;;;;;;5030514;28;20061;-51
2023/10/07 02:31:00;;;;;;;19.10;9.55;;;24.30;99.90;;;;;;5031773;28;20543;-51
2023/10/07 02:33:28;;;;;;;19.92;7.95;;;24.40;99.90;;;;;;5031806;28;20025;-51
2023/10/07 02:35:55;;;;;;;17.88;8.30;;;24.30;99.90;;;;;;5031504;28;20026;-52
2023/10/07 02:38:35;;;;;;;;;;;24.30;99.90;;;;;;5032069;28;20041;-51
2023/10/07 02:41:07;;;;;;;19.73;9.10;;;24.30;99.90;;;;;;5031564;28;19909;-51
2023/10/07 02:43:34;;;;;;;18.60;8.25;;;24.30;99.90;;;;;;5031699;28;20037;-51
2023/10/07 02:46:08;;;;;;;15.77;8.10;;;24.30;99.90;;;;;;5031466;28;20017;-51
2023/10/07 02:48:38;;;;;;;13.20;7.80;;;24.30;99.90;;;;;;5031530;28;20026;-51
2023/10/07 02:51:09;;;;;;;16.90;7.57;;;24.20;99.90;;;;;;5031573;28;20025;-51
2023/10/07 02:53:35;;;;;;;13.10;7.05;;;24.20;99.90;;;;;;5031623;28;20304;-51
2023/10/07 02:56:16;;;;;;;16.20;7.03;;;24.20;99.90;;;;;;5031483;28;20026;-52
2023/10/07 02:59:00;;;;;;;14.05;6.68;;;24.20;99.90;;;;;;5032042;28;20458;-51
2023/10/07 03:01:26;;;;;;;13.05;5.93;;;24.10;99.90;;;;;;5031841;28;20067;-51
2023/10/07 03:03:54;;;;;;;12.07;6.68;;;24.10;99.90;;;;;;5031495;28;20053;-52
2023/10/07 03:06:25;;;;;;;19.27;7.03;;;24.10;99.90;;;;;;5031489;28;20501;-51
2023/10/07 03:09:00;;;;;;;13.75;6.88;;;24.10;99.90;;;;;;5031250;28;20100;-52
2023/10/07 03:11:40;;;;;;;13.35;6.05;;;24.10;99.90;;;;;;5031341;28;20021;-51
2023/10/07 03:14:12;;;;;;;16.02;6.95;;;24.20;99.90;;;;;;5034876;28;20431;-51
2023/10/07 03:16:47;;;;;;;13.02;6.55;;;24.10;99.90;;;;;;5035195;28;20025;-51
2023/10/07 03:19:30;;;;;;;12.13;5.65;;;24.20;99.90;;;;;;5034790;28;20509;-51
2023/10/07 03:22:06;;;;;;;13.02;7.68;;;24.20;99.90;;;;;;5034855;28;20033;-52
2023/10/07 03:24:49;;;;;;;16.48;6.68;;;24.20;99.90;;;;;;5034869;28;20021;-51
2023/10/07 03:27:25;;;;;;;21.80;8.32;;;24.20;99.90;;;;;;5034910;28;20025;-51
2023/10/07 03:30:27;;;;;;;14.43;6.55;;;24.20;99.90;;;;;;5022419;28;20159;-52
2023/10/07 03:32:56;;;;;;;16.02;6.22;;;24.20;99.90;;;;;;5031536;28;20029;-52
2023/10/07 03:35:59;;;;;;;11.48;6.60;;;24.20;99.90;;;;;;5034768;28;20021;-51
2023/10/07 03:38:26;;;;;;;14.10;6.50;;;24.20;99.90;;;;;;5022247;28;20038;-51
2023/10/07 03:40:55;;;;;;;16.13;7.80;;;24.30;99.90;;;;;;5034677;28;20390;-51
2023/10/07 03:43:25;;;;;;;12.38;7.55;;;24.20;99.90;;;;;;5021308;28;20096;-51
2023/10/07 03:45:52;;;;;;;16.90;8.30;;;24.30;99.90;;;;;;5034449;28;20382;-51
2023/10/07 03:48:23;;;;;;;14.75;7.47;;;24.30;99.90;;;;;;5034253;28;20017;-52
2023/10/07 03:51:06;;;;;;;17.17;9.32;;;24.30;99.90;;;;;;5030877;28;20033;-51
2023/10/07 03:53:45;;;;;;;21.48;8.48;;;24.30;99.90;;;;;;5019803;28;20470;-50
2023/10/07 03:56:12;;;;;;;19.85;8.85;;;24.30;99.90;;;;;;5032630;28;20099;-50
2023/10/07 03:58:41;;;;;;;14.07;7.05;;;24.30;99.90;;;;;;5034382;28;20373;-51
2023/10/07 04:01:16;;;;;;;19.90;8.38;;;24.20;99.90;;;;;;5020607;28;20034;-50
2023/10/07 04:03:47;;;;;;;17.42;8.73;;;24.30;99.90;;;;;;5024349;28;20060;-52
2023/10/07 04:06:20;;;;;;;21.73;8.30;;;24.20;99.90;;;;;;5031926;28;20021;-51
2023/10/07 04:08:53;;;;;;;21.13;7.85;;;24.20;99.90;;;;;;5032525;28;20043;-51
2023/10/07 04:11:26;;;;;;;15.70;7.90;;;24.20;99.90;;;;;;5034114;28;20036;-51
2023/10/07 04:13:56;;;;;;;17.88;8.18;;;24.20;99.90;;;;;;5032738;28;20048;-51
2023/10/07 04:16:29;;;;;;;18.88;8.95;;;24.20;99.90;;;;;;5033845;28;20042;-51
2023/10/07 04:19:09;;;;;;;15.95;8.65;;;24.20;99.90;;;;;;5033775;28;20048;-51
2023/10/07 04:21:39;;;;;;;14.07;8.10;;;24.20;99.90;;;;;;5033836;28;20022;-51
2023/10/07 04:24:09;;;;;;;20.40;9.23;;;24.20;99.90;;;;;;5033337;28;20013;-51
2023/10/07 04:27:02;;;;;;;22.85;9.25;;;24.20;99.90;;;;;;5033767;28;20382;-51
2023/10/07 04:29:28;;;;;;;15.82;8.65;;;24.20;99.90;;;;;;5033655;28;20021;-50
2023/10/07 04:31:55;;;;;;;20.40;8.55;;;24.10;99.90;;;;;;5033666;28;20025;-51
2023/10/07 04:34:21;;;;;;;19.10;8.00;;;24.10;99.90;;;;;;5033541;28;20025;-51
2023/10/07 04:42:38;;;;;;;15.35;9.05;;;24.10;99.90;;;;;;5005069;28;20037;-51
2023/10/07 04:51:03;;;;;;;17.83;9.77;;;24.10;99.90;;;;;;5032948;28;20027;-52
2023/10/07 04:53:38;;;;;;;23.92;10.73;;;24.00;99.90;;;;;;5032777;28;20060;-52
2023/10/07 04:56:08;;;;;;;21.45;9.23;;;24.00;99.90;;;;;;5032936;28;20017;-52
2023/10/07 04:58:34;;;;;;;20.55;8.68;;;24.00;99.90;;;;;;5032765;28;20025;-51
2023/10/07 05:01:08;;;;;;;17.00;7.90;;;23.90;99.90;;;;;;5030874;28;20029;-50
2023/10/07 05:03:34;;;;;;;17.73;9.43;;;23.90;99.90;;;;;;5012756;28;20024;-51
2023/10/07 05:06:00;;;;;;;19.40;9.52;;;23.90;99.90;;;;;;5013077;28;20037;-51
2023/10/07 05:08:27;;;;;;;20.52;8.73;;;23.90;99.90;;;;;;5012552;28;20034;-51
2023/10/07 05:11:04;;;;;;;19.55;9.30;;;23.90;99.90;;;;;;4995679;28;20433;-51
2023/10/07 05:13:32;;;;;;;18.23;9.13;;;23.90;99.90;;;;;;5011963;28;20463;-51
2023/10/07 05:15:58;;;;;;;18.88;9.20;;;23.90;99.90;;;;;;5012650;28;20065;-52
2023/10/07 05:18:24;;;;;;;20.23;9.68;;;23.90;99.90;;;;;;4994951;28;20033;-51
2023/10/07 05:20:51;;;;;;;19.67;9.57;;;24.00;99.90;;;;;;5012834;28;20101;-51
2023/10/07 05:23:18;;;;;;;16.83;9.60;;;24.00;99.90;;;;;;5012855;28;20494;-51
2023/10/07 05:25:48;;;;;;;13.55;8.30;;;24.00;99.90;;;;;;5012603;28;20072;-52
2023/10/07 05:28:20;;;;;;;14.45;8.93;;;24.00;99.90;;;;;;5012630;28;20022;-52
2023/10/07 05:30:50;;;;;;;20.73;8.18;;;24.00;99.90;;;;;;5012673;28;20029;-52
2023/10/07 05:33:32;;;;;;;18.67;9.30;;;24.00;99.90;;;;;;5012153;28;20033;-51
2023/10/07 05:36:17;;;;;;;18.92;9.05;;;24.00;99.90;;;;;;5012322;28;20359;-52
2023/10/07 05:38:47;;;;;;;16.42;8.05;;;24.00;99.90;;;;;;5012260;28;20026;-52
2023/10/07 05:41:15;;;;;;;15.85;8.55;;;24.10;99.90;;;;;;5012317;28;20025;-51
2023/10/07 05:43:48;;;;;;;14.93;8.35;;;24.00;99.90;;;;;;5012351;28;20030;-52
2023/10/07 05:46:18;;;;;;;15.10;7.45;;;24.00;99.90;;;;;;5012284;28;20045;-51
2023/10/07 05:48:45;;;;;;;16.70;7.63;;;24.00;99.90;;;;;;5012192;28;20014;-51
2023/10/07 05:51:11;;;;;;;17.38;6.90;;;24.00;99.90;;;;;;5012679;28;20447;-51
2023/10/07 05:53:42;;;;;;;13.93;7.32;;;24.00;99.90;;;;;;5012342;28;20021;-51
2023/10/07 05:56:09;;;;;;;20.23;8.23;;;24.00;99.90;;;;;;5012386;28;20022;-51
2023/10/07 05:58:39;;;;;;;10.98;7.03;;;24.00;99.90;;;;;;5012168;28;20495;-52
2023/10/07 06:01:06;;;;;;;21.52;8.10;;;24.00;99.90;;;;;;5013978;28;20056;-51
2023/10/07 06:03:36;;;;;;;17.63;8.23;;;24.00;99.90;;;;;;5031955;28;20095;-51
2023/10/07 06:06:04;;;;;;;15.35;7.05;;;24.00;99.90;;;;;;5031840;28;20033;-51
2023/10/07 06:08:30;;;;;;;12.13;7.80;;;23.90;99.90;;;;;;5031880;28;20075;-51
2023/10/07 06:10:59;;;;;;;23.10;9.20;;;24.00;99.90;;;;;;5031805;28;20018;-51
2023/10/07 06:13:29;;;;;;;14.48;8.15;;;24.00;99.90;;;;;;5032026;28;20486;-52
2023/10/07 06:15:59;;;;;;;14.02;7.93;;;24.00;99.90;;;;;;5030389;28;20042;-53
2023/10/07 06:18:31;;;;;;;17.08;8.18;;;23.90;99.90;;;;;;5031942;28;20036;-52
2023/10/07 06:21:11;;;;;;;21.70;8.13;;;23.90;99.90;;;;;;5031578;28;20021;-52
2023/10/07 06:23:37;;;;;;;17.83;9.13;;;24.00;99.90;;;;;;5031969;28;20021;-52
2023/10/07 06:26:09;;;;;;;20.13;8.95;;;23.90;99.90;;;;;;5031540;28;20052;-52
2023/10/07 06:28:35;;;;;;;19.45;9.05;;;24.00;99.90;;;;;;5031815;28;20061;-52
2023/10/07 06:31:01;;;;;;;16.42;9.25;;;23.90;99.90;;;;;;5031622;28;20017;-52
2023/10/07 06:33:27;;;;;;;16.35;8.40;;;23.90;99.90;;;;;;5031765;28;20029;-52
2023/10/07 06:35:53;;;;;;;20.17;9.43;;;23.90;99.90;;;;;;5031553;28;20112;-51
2023/10/07 06:38:22;;;;;;;17.35;7.85;;;23.90;99.90;;;;;;5031804;28;20441;-51
2023/10/07 06:40:48;;;;;;;14.32;7.78;;;23.90;99.90;;;;;;5031666;28;20025;-51
2023/10/07 06:43:15;;;;;;;20.33;7.63;;;23.90;99.90;;;;;;5031475;28;20025;-51
2023/10/07 06:45:44;;;;;;;12.70;7.13;;;24.00;99.90;;;;;;5031780;28;20056;-52
2023/10/07 06:48:11;;;;;;;12.45;8.18;;;24.00;99.90;;;;;;5034321;28;20418;-51
2023/10/07 06:50:48;;;;;;;15.55;6.95;;;24.00;99.90;;;;;;5035792;28;20053;-51
2023/10/07 06:53:21;;;;;;;15.20;8.00;;;24.00;99.90;;;;;;5035357;28;20495;-52
2023/10/07 06:55:51;;;;;;;17.00;7.88;;;24.00;99.90;;;;;;5035449;28;20021;-52
2023/10/07 06:58:22;;;;;;;23.02;7.70;;;24.10;99.90;;;;;;5035275;28;20623;-51
2023/10/07 07:00:50;;;;;;;15.88;7.88;;;24.10;99.90;;;;;;5035332;28;20025;-51
2023/10/07 07:03:19;;;;;;;17.73;8.07;;;24.10;99.90;;;;;;5035089;28;20490;-52
2023/10/07 07:05:46;;;;;;;13.10;7.10;;;24.10;99.90;;;;;;5035069;28;20524;-51
2023/10/07 07:08:13;;;;;;;20.65;7.40;;;24.20;99.90;;;;;;5035103;28;20026;-51
2023/10/07 07:10:40;;;;;;;15.30;7.07;;;24.20;99.90;;;;;;5035142;28;20052;-51
2023/10/07 07:13:27;;;;;;;20.13;7.97;;;24.30;99.90;;;;;;5035134;28;20022;-51
2023/10/07 07:15:57;;;;;;;17.23;6.90;;;24.30;99.90;;;;;;5034909;28;20017;-52
2023/10/07 07:18:25;;;;;;;19.63;7.18;;;24.40;99.90;;;;;;5035054;28;20033;-52
2023/10/07 07:23:24;;;;;;;14.75;6.10;;;24.50;99.90;;;;;;5034980;28;20029;-52
2023/10/07 07:26:06;;;;;;;16.65;6.90;;;24.50;99.90;;;;;;5034744;28;20537;-52
2023/10/07 07:28:32;;;;;;;19.85;6.82;;;24.50;99.90;;;;;;5034852;28;20116;-53
2023/10/07 07:30:59;;;;;;;17.55;6.13;;;24.60;99.90;;;;;;5034520;28;20536;-52
2023/10/07 07:33:29;;;;;;;15.38;7.20;;;24.60;99.90;;;;;;5034914;28;20034;-52
2023/10/07 07:35:58;;;;;;;16.65;6.10;;;24.70;99.90;;;;;;5034500;28;20021;-52
2023/10/07 07:38:30;;;;;;;20.38;6.25;;;24.70;99.90;;;;;;5034588;28;20030;-52
2023/10/07 07:41:04;;;;;;;15.00;6.07;;;24.70;99.90;;;;;;5033172;28;20079;-52
2023/10/07 07:43:31;;;;;;;14.15;6.22;;;24.80;99.90;;;;;;5034504;28;20037;-52
2023/10/07 07:49:05;;;;;;;17.33;6.00;;;24.90;99.90;;;;;;5025036;28;20055;-52
2023/10/07 07:51:37;;;;;;;15.18;5.63;;;24.90;99.90;;;;;;5032960;28;20021;-53
2023/10/07 07:54:05;;;;;;;22.42;6.82;;;25.00;99.90;;;;;;5034450;28;20111;-51
2023/10/07 07:56:32;;;;;;;18.08;5.97;;;25.00;99.90;;;;;;5033982;28;20389;-51
2023/10/07 07:58:57;;;;;;;17.80;7.05;;;25.10;99.90;;;;;;5033688;28;20104;-52
2023/10/07 08:01:28;;;;;;;16.33;6.55;;;25.10;99.90;;;;;;5033950;28;20204;-51
2023/10/07 08:03:55;;;;;;;13.50;5.97;;;25.20;99.90;;;;;;5034061;28;20034;-52
2023/10/07 08:06:25;;;;;;;15.55;5.43;;;25.20;99.90;;;;;;5032815;28;20108;-52
2023/10/07 08:08:53;;;;;;;18.48;6.22;;;25.40;99.90;;;;;;5032568;28;20470;-53
2023/10/07 08:11:19;;;;;;;19.98;7.20;;;25.40;99.90;;;;;;5033911;28;20025;-51
2023/10/07 08:13:46;;;;;;;14.65;6.85;;;25.50;99.90;;;;;;5033784;28;20009;-53
2023/10/07 08:16:19;;;;;;;13.77;5.07;;;25.50;99.90;;;;;;5033874;28;20028;-51
2023/10/07 08:18:48;;;;;;;15.60;5.57;;;25.60;99.90;;;;;;5033953;28;20025;-52
2023/10/07 08:21:14;;;;;;;13.10;5.40;;;25.70;99.90;;;;;;5033807;28;20059;-52
2023/10/07 08:23:44;;;;;;;15.93;5.18;;;25.80;99.90;;;;;;5032702;28;20035;-53
2023/10/07 08:26:11;;;;;;;16.58;5.75;;;25.80;99.90;;;;;;5033799;28;20021;-52
2023/10/07 08:34:09;;;;;;;14.25;5.50;;;26.00;99.90;;;;;;5033559;28;20032;-53
2023/10/07 08:36:43;;;;;;;13.77;5.00;;;26.10;99.90;;;;;;5033430;28;20033;-52
2023/10/07 08:39:09;;;;;;;19.20;5.97;;;26.20;99.90;;;;;;5033770;28;20025;-53
2023/10/07 08:41:40;;;;;;;17.98;5.63;;;26.20;99.90;;;;;;5033194;28;20021;-52
2023/10/07 08:44:13;;;;;;;12.10;4.57;;;26.30;99.90;;;;;;5033401;28;20022;-52
2023/10/07 08:46:49;;;;;;;15.85;5.90;;;26.40;99.90;;;;;;5033436;28;20018;-52
2023/10/07 08:49:16;;;;;;;18.98;5.28;;;26.50;99.90;;;;;;5033307;28;20470;-52
2023/10/07 08:51:43;;;;;;;11.75;5.03;;;26.50;99.90;;;;;;5033107;28;20028;-52
2023/10/07 08:54:25;;;;;;;14.05;4.43;;;26.60;99.90;;;;;;5033512;28;20036;-52
2023/10/07 08:56:55;;;;;;;11.05;4.55;;;26.70;99.90;;;;;;5032824;28;20026;-52
2023/10/07 08:59:22;;;;;;;10.70;4.53;;;26.70;99.90;;;;;;5031728;28;20099;-52
2023/10/07 09:02:00;;;;;;;13.15;4.43;;;26.80;99.90;;;;;;5031656;28;20474;-52
2023/10/07 09:04:32;;;;;;;9.75;3.60;;;26.80;99.90;;;;;;5031643;28;20119;-53
2023/10/07 09:07:08;;;;;;;10.85;4.38;;;26.90;99.90;;;;;;5032620;28;20028;-52
2023/10/07 09:09:43;;;;;;;8.70;4.70;;;26.90;99.90;;;;;;5031443;28;20014;-53
2023/10/07 09:12:18;;;;;;;13.18;4.50;;;27.00;99.90;;;;;;5032880;28;20131;-53
2023/10/07 09:14:52;;;;;;;15.13;4.65;;;27.00;99.90;;;;;;5032698;28;20021;-52
2023/10/07 09:17:23;;;;;;;9.00;4.10;;;27.10;99.90;;;;;;5032725;28;20037;-53
2023/10/07 09:19:52;;;;;;;11.60;4.10;;;27.10;99.90;;;;;;5032881;28;20037;-53
2023/10/07 09:22:24;;;;;;;14.27;5.20;;;27.10;99.90;;;;;;5032615;28;20058;-52
2023/10/07 09:25:08;;;;;;;7.70;4.00;;;27.20;99.90;;;;;;5032696;28;20482;-52
2023/10/07 09:27:37;;;;;;;9.48;3.72;;;27.30;99.90;;;;;;5031223;28;20152;-52
2023/10/07 09:30:34;;;;;;;13.95;5.32;;;27.30;99.90;;;;;;5032617;28;20034;-53
2023/10/07 09:33:06;;;;;;;13.82;3.72;;;27.40;99.90;;;;;;5032374;28;20036;-53
2023/10/07 09:35:33;;;;;;;12.73;4.97;;;27.40;99.90;;;;;;5032484;28;20131;-50
2023/10/07 09:38:00;;;;;;;17.17;4.22;;;27.50;99.90;;;;;;5032311;28;20759;-51
2023/10/07 09:43:19;;;;;;;7.95;3.63;;;27.60;99.90;;;;;;5032497;28;20176;-51
2023/10/07 09:45:52;;;;;;;12.93;4.63;;;27.70;99.90;;;;;;5032244;28;20022;-52
2023/10/07 09:48:23;;;;;;;13.18;3.63;;;27.70;99.90;;;;;;5032125;28;20020;-51
2023/10/07 09:50:55;;;;;;;9.10;3.75;;;27.80;99.90;;;;;;5032287;28;20064;-51
2023/10/07 09:53:59;;;;;;;11.73;3.80;;;27.90;99.90;;;;;;5032005;28;20511;-50
2023/10/07 09:56:33;;;;;;;7.13;4.10;;;28.00;99.90;;;;;;5009560;28;20049;-50
2023/10/07 09:59:35;;;;;;;9.45;3.90;;;28.10;99.90;;;;;;5032157;28;20033;-51
2023/10/07 10:02:16;;;;;;;12.45;4.25;;;28.20;99.90;;;;;;5018192;28;20444;-50
2023/10/07 10:04:57;;;;;;;12.38;4.00;;;28.30;99.90;;;;;;5031907;28;20033;-51
2023/10/07 10:07:32;;;;;;;10.57;3.17;;;28.50;99.90;;;;;;5030573;28;20064;-51
2023/10/07 10:10:08;;;;;;;13.65;4.55;;;28.50;99.90;;;;;;5032098;28;20076;-51
2023/10/07 10:17:53;;;;;;;12.05;3.50;;;28.70;99.90;;;;;;5031711;28;20037;-50
2023/10/07 10:20:22;;;;;;;8.98;3.30;;;28.80;99.90;;;;;;5031793;28;20013;-51
2023/10/07 10:22:52;;;;;;;11.50;3.47;;;28.90;99.90;;;;;;5029703;28;20386;-51
2023/10/07 10:25:37;;;;;;;8.75;3.22;;;29.00;99.90;;;;;;5031882;28;20022;-51
2023/10/07 10:28:06;;;;;;;9.90;3.75;;;29.10;99.90;;;;;;5031885;28;20497;-51
2023/10/07 10:30:32;;;;;;;10.48;3.97;;;29.20;99.90;;;;;;5031818;28;20104;-51
2023/10/07 10:33:08;;;;;;;16.55;4.38;;;29.20;99.90;;;;;;5031553;28;20049;-51
2023/10/07 10:35:40;;;;;;;10.35;3.90;;;29.30;99.90;;;;;;5031750;28;20029;-51
2023/10/07 10:38:09;;;;;;;10.65;4.20;;;29.40;99.90;;;;;;5030140;28;20037;-51
2023/10/07 10:40:36;;;;;;;9.15;3.72;;;29.50;99.90;;;;;;5031663;28;20032;-51
2023/10/07 10:43:02;;;;;;;14.18;3.63;;;29.50;99.90;;;;;;5031583;28;20159;-51
2023/10/07 10:45:29;;;;;;;6.15;3.47;;;29.50;99.90;;;;;;5031581;28;20025;-51
2023/10/07 10:47:59;;;;;;;6.97;3.65;;;29.60;99.90;;;;;;5031568;28;20425;-51
2023/10/07 10:50:28;;;;;;;10.00;3.90;;;29.60;99.90;;;;;;5031649;28;20021;-51
2023/10/07 10:52:56;;;;;;;8.25;3.50;;;29.60;99.90;;;;;;5031446;28;20025;-51
2023/10/07 10:55:25;;;;;;;;;;;29.70;99.90;;;;;;5031937;28;20029;-51
2023/10/07 10:57:52;;;;;;;8.25;3.90;;;29.70;99.90;;;;;;5029927;28;19913;-51
2023/10/07 11:00:24;;;;;;;;;;;29.70;99.90;;;;;;5031736;28;20018;-51
2023/10/07 11:02:51;;;;;;;8.77;4.00;;;29.80;99.90;;;;;;5031221;28;20360;-51
2023/10/07 11:05:17;;;;;;;17.05;4.32;;;29.90;99.90;;;;;;5031314;28;20018;-51
2023/10/07 11:07:46;;;;;;;10.00;4.30;;;29.90;99.90;;;;;;5031446;28;20041;-50
2023/10/07 11:10:20;;;;;;;8.98;4.18;;;29.90;99.90;;;;;;5031413;28;20079;-51
2023/10/07 11:12:52;;;;;;;9.85;3.97;;;30.00;99.90;;;;;;5018129;28;20021;-51
2023/10/07 11:15:29;;;;;;;7.63;4.00;;;30.00;99.90;;;;;;5031431;28;20104;-51
2023/10/07 11:18:11;;;;;;;9.70;4.10;;;30.10;99.90;;;;;;5031268;28;20445;-51
2023/10/07 11:20:40;;;;;;;11.40;3.65;;;30.10;99.90;;;;;;5029835;28;20025;-52
2023/10/07 11:23:08;;;;;;;12.10;4.53;;;30.10;99.90;;;;;;5031519;28;20397;-51
2023/10/07 11:25:41;;;;;;;10.75;5.68;;;30.20;99.90;;;;;;5031010;28;20079;-51
2023/10/07 11:28:11;;;;;;;14.48;4.60;;;30.20;99.90;;;;;;5031275;28;20073;-51
2023/10/07 11:30:46;;;;;;;17.58;4.88;;;30.30;99.90;;;;;;5031322;28;20047;-51
2023/10/07 11:33:16;;;;;;;12.35;4.05;;;30.30;99.90;;;;;;5018938;28;20024;-51
2023/10/07 11:35:42;;;;;;;9.43;4.05;;;30.30;99.90;;;;;;5034462;28;20025;-50
2023/10/07 11:38:11;;;;;;;9.73;3.63;;;30.40;99.90;;;;;;5034673;28;20033;-51
2023/10/07 11:40:37;;;;;;;9.80;4.38;;;30.40;99.90;;;;;;5034834;28;20021;-51
2023/10/07 11:43:09;;;;;;;11.23;4.03;;;30.40;99.90;;;;;;5034422;28;20036;-51
2023/10/07 11:45:39;;;;;;;13.77;4.78;;;30.50;99.90;;;;;;5034573;28;20083;-50
2023/10/07 11:48:08;;;;;;;11.63;5.13;;;30.60;99.90;;;;;;5034315;28;20044;-50
2023/10/07 11:50:37;;;;;;;11.85;3.95;;;30.50;99.90;;;;;;5034301;28;20028;-52
2023/10/07 11:53:07;;;;;;;8.50;4.18;;;30.60;99.90;;;;;;5034056;28;20029;-50
2023/10/07 11:55:33;;;;;;;13.90;5.20;;;30.70;99.90;;;;;;5033589;28;20493;-51
2023/10/07 11:58:03;;;;;;;18.17;5.15;;;30.70;99.90;;;;;;5033403;28;20057;-52
2023/10/07 12:00:34;;;;;;;14.07;4.70;;;30.70;99.90;;;;;;5032761;28;20017;-51
2023/10/07 12:03:07;;;;;;;11.25;4.70;;;30.70;99.90;;;;;;5033425;28;20136;-50
2023/10/07 12:05:37;;;;;;;12.85;4.32;;;30.70;99.90;;;;;;5032925;28;20485;-51
2023/10/07 12:08:03;;;;;;;14.23;5.15;;;30.70;99.90;;;;;;5033164;28;20022;-52
2023/10/07 12:10:36;;;;;;;14.48;4.65;;;30.70;99.90;;;;;;5033557;28;20118;-51
2023/10/07 12:13:03;;;;;;;11.13;4.15;;;30.70;99.90;;;;;;5027370;28;20402;-50
2023/10/07 12:15:32;;;;;;;11.57;4.35;;;30.70;99.90;;;;;;5033831;28;20512;-52
2023/10/07 12:17:58;;;;;;;11.20;4.18;;;30.70;99.90;;;;;;5033628;28;20044;-50
2023/10/07 12:20:23;;;;;;;13.15;5.18;;;30.70;99.90;;;;;;5032626;28;20018;-51
2023/10/07 12:22:49;;;;;;;13.57;4.57;;;30.70;99.90;;;;;;5032479;28;20025;-51
2023/10/07 12:25:16;;;;;;;10.52;4.30;;;30.70;99.90;;;;;;5033951;28;20021;-51
2023/10/07 12:27:47;;;;;;;9.40;4.38;;;30.80;99.90;;;;;;5033621;28;20028;-51
2023/10/07 12:30:14;;;;;;;11.13;4.07;;;30.80;99.90;;;;;;5032414;28;20446;-50
2023/10/07 12:32:41;;;;;;;13.13;4.97;;;30.80;99.90;;;;;;5033732;28;20037;-50
2023/10/07 12:35:10;;;;;;;9.20;4.43;;;30.80;99.90;;;;;;5033968;28;20025;-50
2023/10/07 12:37:48;;;;;;;11.77;4.25;;;30.90;99.90;;;;;;5032065;28;20095;-51
2023/10/07 12:40:17;;;;;;;12.93;4.28;;;30.80;99.90;;;;;;5033458;28;20048;-51
2023/10/07 12:42:44;;;;;;;14.10;4.43;;;30.80;99.90;;;;;;5032931;28;20197;-51
2023/10/07 12:45:11;;;;;;;10.60;5.15;;;30.90;99.90;;;;;;5032317;28;20080;-51
2023/10/07 12:47:39;;;;;;;16.25;4.60;;;30.90;99.90;;;;;;5033146;28;20084;-50
2023/10/07 12:50:28;;;;;;;11.95;5.03;;;30.90;99.90;;;;;;5033127;28;20037;-52
2023/10/07 12:52:55;;;;;;;11.35;4.70;;;30.80;99.90;;;;;;5031600;28;20029;-54
2023/10/07 12:55:21;;;;;;;;;;;30.90;99.90;;;;;;5032349;28;20092;-53
2023/10/07 12:57:51;;;;;;;17.58;4.50;;;30.90;99.90;;;;;;5032959;28;19913;-53
2023/10/07 13:00:22;;;;;;;12.70;4.70;;;30.90;99.90;;;;;;5032906;28;20049;-51
2023/10/07 13:02:53;;;;;;;78.50;7.30;;;30.90;99.90;;;;;;5031619;28;20543;-58
2023/10/07 13:05:20;;;;;;;15.50;4.93;;;31.00;99.90;;;;;;5031482;28;20112;-56
2023/10/07 13:07:47;;;;;;;13.38;4.80;;;31.00;99.90;;;;;;5032876;28;20021;-58
2023/10/07 13:10:14;;;;;;;11.45;4.75;;;31.00;99.90;;;;;;5032937;28;20018;-57
2023/10/07 13:12:40;;;;;;;12.43;4.72;;;31.10;99.90;;;;;;5032886;28;20021;-57
2023/10/07 13:15:18;;;;;;;11.75;4.50;;;31.20;99.90;;;;;;5032820;28;20029;-56
2023/10/07 13:17:48;;;;;;;9.95;3.97;;;31.20;99.90;;;;;;5032544;28;20025;-56
2023/10/07 13:20:20;;;;;;;18.23;6.05;;;31.30;99.90;;;;;;5032540;28;20100;-60
2023/10/07 13:22:57;;;;;;;14.27;4.70;;;31.30;99.90;;;;;;5032470;28;20026;-58
2023/10/07 13:25:24;;;;;;;10.60;4.35;;;31.40;99.90;;;;;;5032664;28;20105;-56
2023/10/07 13:27:50;;;;;;;13.38;4.63;;;31.40;99.90;;;;;;5032468;28;20017;-52
2023/10/07 13:30:17;;;;;;;10.52;4.53;;;31.50;99.90;;;;;;5032052;28;20036;-55
2023/10/07 13:32:44;;;;;;;12.10;4.20;;;31.60;99.90;;;;;;5031841;28;20036;-57
2023/10/07 13:35:15;;;;;;;14.55;4.60;;;31.60;99.90;;;;;;5031432;28;20044;-61
2023/10/07 13:37:43;;;;;;;10.88;4.57;;;31.60;99.90;;;;;;5031176;28;20060;-59
2023/10/07 13:40:15;;;;;;;9.85;3.70;;;31.70;99.90;;;;;;5032664;28;20018;-58